createdAt,value
2018-05-23T00:00:50.382Z,15.95
2018-05-23T00:02:50.472Z,15.93
2018-05-23T00:04:50.824Z,15.95
2018-05-23T00:06:50.281Z,15.95
2018-05-23T00:08:50.474Z,15.96
2018-05-23T00:10:50.582Z,15.91
2018-05-23T00:12:50.754Z,15.87
2018-05-23T00:14:49.901Z,15.81
2018-05-23T00:16:50.217Z,15.76
2018-05-23T00:18:50.378Z,15.68
2018-05-23T00:20:50.595Z,15.65
2018-05-23T00:22:50.742Z,15.60
2018-05-23T00:24:49.895Z,15.56
2018-05-23T00:26:50.185Z,15.56
2018-05-23T00:28:50.292Z,15.33
2018-05-23T00:30:50.484Z,15.25
2018-05-23T00:32:50.620Z,15.21
2018-05-23T00:34:50.012Z,15.10
2018-05-23T00:36:50.289Z,15.03
2018-05-23T00:38:50.409Z,14.95
2018-05-23T00:40:50.556Z,14.87
2018-05-23T00:42:50.633Z,14.85
2018-05-23T00:44:50.753Z,14.89
2018-05-23T00:46:50.088Z,14.91
2018-05-23T00:48:50.209Z,14.93
2018-05-23T00:50:50.341Z,14.92
2018-05-23T00:52:50.504Z,14.83
2018-05-23T00:54:50.702Z,14.75
2018-05-23T00:56:49.955Z,14.63
2018-05-23T00:58:50.186Z,14.57
2018-05-23T01:00:50.348Z,14.43
2018-05-23T01:02:50.493Z,14.34
2018-05-23T01:04:49.952Z,14.32
2018-05-23T01:06:50.209Z,14.34
2018-05-23T01:08:50.360Z,14.36
2018-05-23T01:10:50.495Z,14.35
2018-05-23T01:12:50.722Z,14.29
2018-05-23T01:14:50.816Z,14.26
2018-05-23T01:16:50.097Z,14.19
2018-05-23T01:18:50.217Z,14.05
2018-05-23T01:20:50.335Z,14.01
2018-05-23T01:22:50.540Z,14.01
2018-05-23T01:24:50.659Z,14.03
2018-05-23T01:26:49.991Z,14.03
2018-05-23T01:28:50.163Z,13.97
2018-05-23T01:30:50.300Z,13.96
2018-05-23T01:32:50.486Z,13.94
2018-05-23T01:34:50.775Z,13.94
2018-05-23T01:36:50.027Z,13.82
2018-05-23T01:38:50.260Z,13.80
2018-05-23T01:40:50.445Z,13.80
2018-05-23T01:42:50.564Z,13.75
2018-05-23T01:44:50.728Z,13.72
2018-05-23T01:46:50.012Z,13.66
2018-05-23T01:48:50.168Z,13.65
2018-05-23T01:50:50.367Z,13.65
2018-05-23T01:52:50.479Z,13.67
2018-05-23T01:54:50.639Z,13.66
2018-05-23T01:56:50.862Z,13.64
2018-05-23T01:58:50.017Z,13.64
2018-05-23T02:00:50.212Z,13.59
2018-05-23T02:02:50.369Z,13.54
2018-05-23T02:04:50.757Z,13.48
2018-05-23T02:06:50.037Z,13.43
2018-05-23T02:08:50.366Z,13.36
2018-05-23T02:10:50.477Z,13.30
2018-05-23T02:12:50.624Z,13.30
2018-05-23T02:14:50.763Z,13.32
2018-05-23T02:16:50.034Z,13.31
2018-05-23T02:18:50.163Z,13.28
2018-05-23T02:20:50.337Z,13.28
2018-05-23T02:22:50.497Z,13.20
2018-05-23T02:24:50.622Z,13.20
2018-05-23T02:26:50.851Z,13.16
2018-05-23T02:28:50.025Z,13.13
2018-05-23T02:30:50.245Z,13.10
2018-05-23T02:32:50.488Z,13.03
2018-05-23T02:34:50.819Z,12.97
2018-05-23T02:36:50.158Z,12.92
2018-05-23T02:38:50.353Z,12.87
2018-05-23T02:40:50.517Z,12.86
2018-05-23T02:42:50.732Z,12.84
2018-05-23T02:44:50.842Z,12.82
2018-05-23T02:46:50.239Z,12.80
2018-05-23T02:48:50.420Z,12.77
2018-05-23T02:50:50.633Z,12.76
2018-05-23T02:52:50.856Z,12.75
2018-05-23T02:54:49.987Z,12.75
2018-05-23T02:56:50.218Z,12.77
2018-05-23T02:58:50.421Z,12.74
2018-05-23T03:00:50.639Z,12.70
2018-05-23T03:02:51.321Z,12.68
2018-05-23T03:04:50.745Z,12.67
2018-05-23T03:06:50.161Z,12.67
2018-05-23T03:08:50.321Z,12.65
2018-05-23T03:10:50.470Z,12.63
2018-05-23T03:12:50.553Z,12.60
2018-05-23T03:14:50.706Z,12.56
2018-05-23T03:16:49.947Z,12.56
2018-05-23T03:18:50.101Z,12.51
2018-05-23T03:20:50.273Z,12.49
2018-05-23T03:22:50.442Z,12.46
2018-05-23T03:24:50.623Z,12.45
2018-05-23T03:26:50.887Z,12.45
2018-05-23T03:28:50.053Z,12.52
2018-05-23T03:30:50.227Z,12.58
2018-05-23T03:32:50.418Z,12.64
2018-05-23T03:34:50.797Z,12.72
2018-05-23T03:36:50.052Z,12.78
2018-05-23T03:38:50.258Z,12.77
2018-05-23T03:40:50.420Z,12.75
2018-05-23T03:42:50.642Z,12.74
2018-05-23T03:44:50.825Z,12.71
2018-05-23T03:46:50.108Z,12.71
2018-05-23T03:48:50.302Z,12.67
2018-05-23T03:50:50.495Z,12.63
2018-05-23T03:52:50.655Z,12.62
2018-05-23T03:54:50.825Z,12.62
2018-05-23T03:56:50.107Z,12.64
2018-05-23T03:58:50.220Z,12.67
2018-05-23T04:00:50.398Z,12.71
2018-05-23T04:02:50.523Z,12.74
2018-05-23T04:04:50.632Z,12.77
2018-05-23T04:06:49.952Z,12.81
2018-05-23T04:08:50.159Z,12.86
2018-05-23T04:10:50.284Z,12.93
2018-05-23T04:12:50.396Z,12.97
2018-05-23T04:14:50.497Z,13.03
2018-05-23T04:16:50.770Z,13.10
2018-05-23T04:18:49.893Z,13.14
2018-05-23T04:20:50.065Z,13.21
2018-05-23T04:22:50.245Z,13.27
2018-05-23T04:24:50.624Z,13.33
2018-05-23T04:26:50.547Z,13.43
2018-05-23T04:28:50.735Z,13.49
2018-05-23T04:30:49.932Z,13.60
2018-05-23T04:32:50.086Z,13.67
2018-05-23T04:34:50.507Z,13.81
2018-05-23T04:36:50.774Z,13.81
2018-05-23T04:38:49.891Z,14.11
2018-05-23T04:40:50.001Z,14.23
2018-05-23T04:42:50.144Z,14.40
2018-05-23T04:44:50.283Z,14.40
2018-05-23T04:46:50.637Z,14.71
2018-05-23T04:48:51.413Z,14.89
2018-05-23T04:50:50.785Z,14.99
2018-05-23T04:52:50.057Z,15.15
2018-05-23T04:54:50.234Z,15.25
2018-05-23T04:56:50.596Z,15.41
2018-05-23T04:58:50.795Z,15.41
2018-05-23T05:00:50.066Z,15.53
2018-05-23T05:02:50.238Z,15.59
2018-05-23T05:04:50.725Z,15.68
2018-05-23T05:06:50.062Z,15.92
2018-05-23T05:08:50.197Z,16.17
2018-05-23T05:10:50.347Z,16.28
2018-05-23T05:12:50.517Z,16.61
2018-05-23T05:14:50.677Z,16.73
2018-05-23T05:16:50.342Z,16.8
2018-05-23T05:18:50.472Z,16.95
2018-05-23T05:20:50.616Z,17.06
2018-05-23T05:22:50.839Z,17.15
2018-05-23T05:24:50.405Z,17.2
2018-05-23T05:26:50.686Z,17.28
2018-05-23T05:28:50.797Z,17.27
2018-05-23T05:30:49.917Z,17.31
2018-05-23T05:32:50.078Z,17.43
2018-05-23T05:34:50.442Z,17.53
2018-05-23T05:36:50.152Z,17.71
2018-05-23T05:38:50.737Z,17.80
2018-05-23T05:40:49.894Z,18.02
2018-05-23T05:42:50.056Z,18.09
2018-05-23T05:44:50.256Z,18.31
2018-05-23T05:46:50.661Z,18.47
2018-05-23T05:48:50.822Z,18.51
2018-05-23T05:50:50.008Z,18.66
2018-05-23T05:52:50.184Z,18.77
2018-05-23T05:54:50.298Z,18.74
2018-05-23T05:56:50.541Z,18.68
2018-05-23T05:58:50.648Z,18.67
2018-05-23T06:00:50.838Z,18.84
2018-05-23T06:02:49.949Z,18.97
2018-05-23T06:04:50.298Z,19.13
2018-05-23T06:06:50.603Z,19.26
2018-05-23T06:08:50.773Z,19.35
2018-05-23T06:10:49.946Z,19.38
2018-05-23T06:12:50.105Z,19.37
2018-05-23T06:14:50.260Z,19.34
2018-05-23T06:16:50.541Z,19.41
2018-05-23T06:18:50.752Z,19.36
2018-05-23T06:20:49.953Z,19.41
2018-05-23T06:22:50.203Z,19.47
2018-05-23T06:24:50.369Z,19.47
2018-05-23T06:26:50.692Z,19.54
2018-05-23T06:28:50.887Z,19.65
2018-05-23T06:30:50.004Z,19.75
2018-05-23T06:32:50.175Z,19.84
2018-05-23T06:34:50.548Z,19.75
2018-05-23T06:36:49.978Z,19.61
2018-05-23T06:38:50.106Z,19.62
2018-05-23T06:40:50.287Z,19.56
2018-05-23T06:42:50.406Z,19.43
2018-05-23T06:44:50.552Z,19.35
2018-05-23T06:46:50.730Z,19.39
2018-05-23T06:48:49.950Z,19.39
2018-05-23T06:50:50.102Z,19.47
2018-05-23T06:52:50.228Z,19.65
2018-05-23T06:54:50.398Z,19.70
2018-05-23T06:56:50.689Z,19.70
2018-05-23T06:58:49.930Z,19.87
2018-05-23T07:00:50.087Z,19.93
2018-05-23T07:02:50.233Z,20.11
2018-05-23T07:04:50.681Z,20.16
2018-05-23T07:06:49.888Z,20.34
2018-05-23T07:08:50.014Z,20.40
2018-05-23T07:10:50.155Z,20.40
2018-05-23T07:12:50.638Z,20.55
2018-05-23T07:14:50.883Z,20.55
2018-05-23T07:16:50.245Z,20.71
2018-05-23T07:18:50.392Z,20.80
2018-05-23T07:20:50.554Z,20.99
2018-05-23T07:22:50.702Z,21.19
2018-05-23T07:24:50.847Z,21.29
2018-05-23T07:26:50.198Z,21.5
2018-05-23T07:28:50.361Z,21.6
2018-05-23T07:30:50.630Z,21.8
2018-05-23T07:32:50.842Z,21.81
2018-05-23T07:34:50.319Z,21.80
2018-05-23T07:36:50.614Z,21.75
2018-05-23T07:38:50.748Z,21.89
2018-05-23T07:40:50.857Z,22.0
2018-05-23T07:42:50.078Z,22.08
2018-05-23T07:44:50.185Z,22.1
2018-05-23T07:46:50.451Z,22.2
2018-05-23T07:48:50.625Z,22.2
2018-05-23T07:50:50.807Z,22.09
2018-05-23T07:52:50.147Z,22.00
2018-05-23T07:54:50.239Z,21.89
2018-05-23T07:56:50.453Z,21.94
2018-05-23T07:58:50.551Z,21.98
2018-05-23T08:00:50.655Z,21.98
2018-05-23T08:02:50.805Z,22.05
2018-05-23T08:04:50.268Z,22.06
2018-05-23T08:06:50.592Z,22.03
2018-05-23T08:08:50.711Z,21.99
2018-05-23T08:10:50.970Z,21.83
2018-05-23T08:12:50.133Z,21.86
2018-05-23T08:14:50.224Z,21.83
2018-05-23T08:16:50.381Z,21.56
2018-05-23T08:18:50.639Z,21.47
2018-05-23T08:20:50.878Z,21.53
2018-05-23T08:22:50.102Z,21.52
2018-05-23T08:24:50.218Z,21.37
2018-05-23T08:26:50.457Z,21.17
2018-05-23T08:28:50.566Z,21.04
2018-05-23T08:30:50.736Z,20.86
2018-05-23T08:32:49.986Z,20.86
2018-05-23T08:34:50.288Z,20.50
2018-05-23T08:36:50.581Z,20.36
2018-05-23T08:38:50.731Z,20.35
2018-05-23T08:40:50.834Z,20.36
2018-05-23T08:42:50.203Z,20.31
2018-05-23T08:44:50.406Z,20.25
2018-05-23T08:46:50.688Z,20.18
2018-05-23T08:48:50.789Z,20.22
2018-05-23T08:50:49.894Z,20.57
2018-05-23T08:52:50.161Z,20.90
2018-05-23T08:54:50.436Z,21.01
2018-05-23T08:56:50.036Z,21.32
2018-05-23T08:58:50.171Z,21.42
2018-05-23T09:00:50.349Z,21.78
2018-05-23T09:02:50.649Z,22.0
2018-05-23T09:04:49.895Z,22.0
2018-05-23T09:06:50.229Z,22.2
2018-05-23T09:08:50.295Z,22.2
2018-05-23T09:10:50.399Z,22.4
2018-05-23T09:12:50.501Z,22.27
2018-05-23T09:14:50.560Z,22.09
2018-05-23T09:16:51.049Z,21.95
2018-05-23T09:18:50.478Z,21.95
2018-05-23T09:20:50.647Z,22.00
2018-05-23T09:22:50.651Z,21.98
2018-05-23T09:24:50.831Z,21.89
2018-05-23T09:26:50.218Z,21.78
2018-05-23T09:28:50.365Z,21.34
2018-05-23T09:30:50.546Z,20.48
2018-05-23T09:32:50.644Z,20.09
2018-05-23T09:34:49.960Z,19.70
2018-05-23T09:36:50.229Z,19.51
2018-05-23T09:38:50.369Z,19.33
2018-05-23T09:40:50.463Z,19.10
2018-05-23T09:42:50.614Z,19.05
2018-05-23T09:44:50.815Z,19.13
2018-05-23T09:46:50.074Z,19.17
2018-05-23T09:48:50.226Z,19.14
2018-05-23T09:50:50.448Z,19.20
2018-05-23T09:52:50.583Z,19.44
2018-05-23T09:54:50.703Z,19.51
2018-05-23T09:56:50.029Z,19.61
2018-05-23T09:58:50.233Z,19.62
2018-05-23T10:00:50.395Z,19.70
2018-05-23T10:02:50.529Z,19.81
2018-05-23T10:04:49.887Z,19.86
2018-05-23T10:06:50.194Z,19.96
2018-05-23T10:08:50.288Z,20.08
2018-05-23T10:10:50.493Z,20.18
2018-05-23T10:12:50.641Z,20.32
2018-05-23T10:14:50.763Z,20.56
2018-05-23T10:16:49.978Z,20.97
2018-05-23T10:18:50.077Z,21.11
2018-05-23T10:20:50.278Z,21.45
2018-05-23T10:22:50.436Z,21.62
2018-05-23T10:24:50.563Z,21.8
2018-05-23T10:26:49.906Z,21.73
2018-05-23T10:28:50.016Z,21.60
2018-05-23T10:30:50.241Z,21.38
2018-05-23T10:32:50.394Z,21.45
2018-05-23T10:34:50.783Z,21.52
2018-05-23T10:36:50.240Z,21.48
2018-05-23T10:38:50.384Z,21.62
2018-05-23T10:40:50.485Z,21.70
2018-05-23T10:42:50.662Z,22.08
2018-05-23T10:44:50.769Z,22.32
2018-05-23T10:46:50.088Z,22.6
2018-05-23T10:48:50.242Z,22.6
2018-05-23T10:50:50.356Z,22.8
2018-05-23T10:52:50.573Z,22.9
2018-05-23T10:54:50.668Z,22.9
2018-05-23T10:56:49.977Z,22.9
2018-05-23T10:58:50.125Z,23.1
2018-05-23T11:00:50.249Z,23.2
2018-05-23T11:02:50.822Z,23.4
2018-05-23T11:04:50.196Z,23.4
2018-05-23T11:06:50.464Z,23.4
2018-05-23T11:08:51.072Z,23.4
2018-05-23T11:10:50.245Z,23.5
2018-05-23T11:12:50.338Z,23.6
2018-05-23T11:14:50.517Z,23.6
2018-05-23T11:16:50.762Z,23.6
2018-05-23T11:18:49.990Z,23.7
2018-05-23T11:20:50.151Z,23.7
2018-05-23T11:22:50.278Z,23.8
2018-05-23T11:24:50.510Z,23.8
2018-05-23T11:26:50.820Z,24.0
2018-05-23T11:28:50.047Z,24.0
2018-05-23T11:30:50.216Z,24.1
2018-05-23T11:32:50.370Z,24.1
2018-05-23T11:34:50.757Z,24.1
2018-05-23T11:36:50.142Z,24.2
2018-05-23T11:38:50.301Z,24.2
2018-05-23T11:40:50.449Z,24.4
2018-05-23T11:42:50.602Z,24.4
2018-05-23T11:44:50.804Z,24.6
2018-05-23T11:46:50.088Z,24.7
2018-05-23T11:48:50.198Z,24.8
2018-05-23T11:50:50.421Z,25.0
2018-05-23T11:52:50.613Z,25.0
2018-05-23T11:54:50.787Z,25.1
2018-05-23T11:56:50.135Z,25.2
2018-05-23T11:58:50.231Z,25.3
2018-05-23T12:00:50.405Z,25.3
2018-05-23T12:02:50.540Z,25.3
2018-05-23T12:04:49.988Z,25.3
2018-05-23T12:06:50.217Z,25.3
2018-05-23T12:08:50.323Z,25.3
2018-05-23T12:10:50.494Z,25.3
2018-05-23T12:12:50.700Z,25.3
2018-05-23T12:14:50.860Z,25.4
2018-05-23T12:16:50.106Z,25.4
2018-05-23T12:18:50.333Z,25.5
2018-05-23T12:20:50.467Z,25.5
2018-05-23T12:22:50.619Z,25.5
2018-05-23T12:24:50.786Z,25.5
2018-05-23T12:26:50.341Z,25.5
2018-05-23T12:28:50.532Z,25.5
2018-05-23T12:30:50.641Z,25.4
2018-05-23T12:32:50.866Z,25.5
2018-05-23T12:34:50.152Z,25.5
2018-05-23T12:36:50.437Z,25.5
2018-05-23T12:38:50.553Z,25.6
2018-05-23T12:40:50.701Z,25.6
2018-05-23T12:42:50.818Z,25.5
2018-05-23T12:44:49.973Z,25.4
2018-05-23T12:46:50.285Z,25.3
2018-05-23T12:48:50.382Z,25.3
2018-05-23T12:50:50.679Z,25.2
2018-05-23T12:52:50.835Z,25.1
2018-05-23T12:54:50.028Z,25.0
2018-05-23T12:56:50.224Z,24.9
2018-05-23T12:58:50.431Z,24.9
2018-05-23T13:00:50.558Z,24.9
2018-05-23T13:02:50.700Z,24.8
2018-05-23T13:04:50.165Z,24.9
2018-05-23T13:06:50.365Z,24.9
2018-05-23T13:08:50.507Z,24.9
2018-05-23T13:10:50.612Z,25.0
2018-05-23T13:12:50.805Z,25.0
2018-05-23T13:14:49.897Z,25.0
2018-05-23T13:16:50.203Z,25.0
2018-05-23T13:18:50.392Z,25.1
2018-05-23T13:20:50.562Z,25.1
2018-05-23T13:22:50.684Z,25.1
2018-05-23T13:24:50.823Z,25.2
2018-05-23T13:26:50.049Z,25.2
2018-05-23T13:28:50.197Z,25.2
2018-05-23T13:30:50.361Z,25.2
2018-05-23T13:32:50.473Z,25.4
2018-05-23T13:34:50.712Z,25.5
2018-05-23T13:36:49.899Z,25.5
2018-05-23T13:38:50.194Z,25.4
2018-05-23T13:40:50.391Z,25.4
2018-05-23T13:42:50.524Z,25.4
2018-05-23T13:44:50.666Z,25.3
2018-05-23T13:46:49.893Z,25.03
2018-05-23T13:48:50.054Z,25.03
2018-05-23T13:50:50.153Z,24.19
2018-05-23T13:52:50.404Z,24.03
2018-05-23T13:54:50.535Z,23.70
2018-05-23T13:56:50.884Z,23.62
2018-05-23T13:58:50.000Z,23.52
2018-05-23T14:00:50.220Z,23.51
2018-05-23T14:02:50.459Z,23.51
2018-05-23T14:04:50.810Z,23.35
2018-05-23T14:06:50.122Z,23.27
2018-05-23T14:08:50.318Z,23.16
2018-05-23T14:10:50.522Z,23.09
2018-05-23T14:12:50.642Z,23.09
2018-05-23T14:14:50.754Z,23.05
2018-05-23T14:16:50.128Z,23.02
2018-05-23T14:18:50.282Z,23.10
2018-05-23T14:20:50.437Z,23.11
2018-05-23T14:22:50.589Z,23.05
2018-05-23T14:24:50.714Z,22.97
2018-05-23T14:26:49.949Z,22.81
2018-05-23T14:28:50.058Z,22.72
2018-05-23T14:30:50.208Z,22.65
2018-05-23T14:32:50.343Z,22.63
2018-05-23T14:34:50.823Z,22.56
2018-05-23T14:36:50.217Z,22.51
2018-05-23T14:38:50.364Z,22.48
2018-05-23T14:40:50.444Z,22.45
2018-05-23T14:42:50.621Z,22.47
2018-05-23T14:44:50.698Z,22.47
2018-05-23T14:46:49.911Z,22.49
2018-05-23T14:48:50.075Z,22.46
2018-05-23T14:50:50.215Z,22.47
2018-05-23T14:52:50.316Z,22.48
2018-05-23T14:54:50.440Z,22.49
2018-05-23T14:56:50.675Z,22.45
2018-05-23T14:58:50.857Z,22.23
2018-05-23T15:00:49.971Z,21.98
2018-05-23T15:02:50.060Z,21.72
2018-05-23T15:04:50.434Z,21.50
2018-05-23T15:06:50.716Z,21.37
2018-05-23T15:08:49.919Z,21.34
2018-05-23T15:10:50.084Z,21.23
2018-05-23T15:12:50.244Z,21.20
2018-05-23T15:14:50.349Z,21.16
2018-05-23T15:16:50.577Z,21.15
2018-05-23T15:18:50.738Z,21.16
2018-05-23T15:20:49.910Z,21.08
2018-05-23T15:22:50.079Z,21.04
2018-05-23T15:24:50.320Z,20.96
2018-05-23T15:26:50.566Z,20.79
2018-05-23T15:28:50.685Z,20.45
2018-05-23T15:30:50.928Z,19.81
2018-05-23T15:32:50.428Z,19.33
2018-05-23T15:34:50.746Z,18.71
2018-05-23T15:36:49.994Z,18.29
2018-05-23T15:38:50.156Z,17.84
2018-05-23T15:40:50.365Z,17.64
2018-05-23T15:42:50.471Z,17.48
2018-05-23T15:44:50.567Z,17.40
2018-05-23T15:46:50.804Z,17.31
2018-05-23T15:48:49.950Z,17.13
2018-05-23T15:50:50.085Z,17.07
2018-05-23T15:52:50.258Z,16.94
2018-05-23T15:54:50.506Z,16.83
2018-05-23T15:56:51.209Z,16.73
2018-05-23T15:58:50.375Z,16.65
2018-05-23T16:00:50.527Z,16.62
2018-05-23T16:02:50.938Z,16.59
2018-05-23T16:04:50.343Z,16.55
2018-05-23T16:06:50.538Z,16.54
2018-05-23T16:08:50.726Z,16.46
2018-05-23T16:10:49.898Z,16.44
2018-05-23T16:12:50.034Z,16.42
2018-05-23T16:14:50.525Z,16.39
2018-05-23T16:16:50.032Z,16.34
2018-05-23T16:18:50.181Z,16.30
2018-05-23T16:20:50.320Z,16.28
2018-05-23T16:22:50.481Z,16.25
2018-05-23T16:24:50.632Z,16.24
2018-05-23T16:26:50.092Z,16.21
2018-05-23T16:28:50.228Z,16.23
2018-05-23T16:30:50.392Z,16.26
2018-05-23T16:32:50.515Z,16.32
2018-05-23T16:34:50.816Z,16.34
2018-05-23T16:36:50.048Z,16.36
2018-05-23T16:38:50.196Z,16.35
2018-05-23T16:40:50.397Z,16.31
2018-05-23T16:42:50.525Z,16.28
2018-05-23T16:44:50.716Z,16.31
2018-05-23T16:46:49.980Z,16.40
2018-05-23T16:48:50.103Z,16.45
2018-05-23T16:50:50.287Z,16.45
2018-05-23T16:52:50.390Z,16.49
2018-05-23T16:54:50.519Z,16.53
2018-05-23T16:56:50.752Z,16.60
2018-05-23T16:58:49.868Z,16.58
2018-05-23T17:00:49.973Z,16.57
2018-05-23T17:02:50.052Z,16.55
2018-05-23T17:04:50.449Z,16.47
2018-05-23T17:06:50.689Z,16.41
2018-05-23T17:08:50.888Z,16.43
2018-05-23T17:10:49.995Z,16.49
2018-05-23T17:12:50.224Z,16.50
2018-05-23T17:14:50.309Z,16.49
2018-05-23T17:16:50.634Z,16.51
2018-05-23T17:18:51.207Z,16.56
2018-05-23T17:20:50.506Z,16.57
2018-05-23T17:22:50.627Z,16.55
2018-05-23T17:24:50.743Z,16.62
2018-05-23T17:26:50.014Z,16.65
2018-05-23T17:28:50.124Z,16.67
2018-05-23T17:30:50.280Z,16.68
2018-05-23T17:32:50.436Z,16.71
2018-05-23T17:34:50.724Z,16.72
2018-05-23T17:36:50.055Z,16.74
2018-05-23T17:38:50.252Z,16.74
2018-05-23T17:40:50.443Z,16.76
2018-05-23T17:42:50.676Z,16.79
2018-05-23T17:44:50.803Z,16.77
2018-05-23T17:46:50.156Z,16.72
2018-05-23T17:48:50.294Z,16.70
2018-05-23T17:50:50.501Z,16.65
2018-05-23T17:52:50.737Z,16.61
2018-05-23T17:54:50.914Z,16.58
2018-05-23T17:56:50.123Z,16.54
2018-05-23T17:58:50.300Z,16.47
2018-05-23T18:00:50.448Z,16.45
2018-05-23T18:02:50.551Z,16.45
2018-05-23T18:04:50.891Z,16.45
2018-05-23T18:06:50.092Z,16.45
2018-05-23T18:08:50.199Z,16.47
2018-05-23T18:10:50.390Z,16.50
2018-05-23T18:12:50.478Z,16.51
2018-05-23T18:14:50.632Z,16.49
2018-05-23T18:16:50.508Z,16.43
2018-05-23T18:18:50.764Z,16.38
2018-05-23T18:20:50.850Z,16.35
2018-05-23T18:22:49.985Z,16.33
2018-05-23T18:24:50.264Z,16.32
2018-05-23T18:26:50.504Z,16.33
2018-05-23T18:28:50.680Z,16.34
2018-05-23T18:30:50.771Z,16.31
2018-05-23T18:32:49.993Z,16.28
2018-05-23T18:34:50.447Z,16.24
2018-05-23T18:36:50.748Z,16.20
2018-05-23T18:38:49.942Z,16.15
2018-05-23T18:40:50.031Z,16.08
2018-05-23T18:42:50.166Z,16.04
2018-05-23T18:44:50.279Z,16.00
2018-05-23T18:46:50.843Z,15.97
2018-05-23T18:48:50.393Z,15.92
2018-05-23T18:50:50.520Z,15.89
2018-05-23T18:52:50.631Z,15.82
2018-05-23T18:54:50.753Z,15.79
2018-05-23T18:56:50.072Z,15.77
2018-05-23T18:58:50.242Z,15.74
2018-05-23T19:00:50.387Z,15.71
2018-05-23T19:02:50.558Z,15.67
2018-05-23T19:04:50.027Z,15.64
2018-05-23T19:06:50.401Z,15.63
2018-05-23T19:08:50.578Z,15.61
2018-05-23T19:10:50.765Z,15.59
2018-05-23T19:12:50.879Z,15.55
2018-05-23T19:14:50.069Z,15.50
2018-05-23T19:16:50.299Z,15.48
2018-05-23T19:18:50.493Z,15.46
2018-05-23T19:20:50.623Z,15.45
2018-05-23T19:22:50.799Z,15.45
2018-05-23T19:24:50.006Z,15.43
2018-05-23T19:26:50.227Z,15.44
2018-05-23T19:28:50.351Z,15.49
2018-05-23T19:30:50.545Z,15.49
2018-05-23T19:32:50.738Z,15.57
2018-05-23T19:34:50.094Z,15.60
2018-05-23T19:36:50.362Z,15.59
2018-05-23T19:38:50.555Z,15.55
2018-05-23T19:40:50.681Z,15.53
2018-05-23T19:42:50.844Z,15.50
2018-05-23T19:44:49.934Z,15.45
2018-05-23T19:46:50.188Z,15.43
2018-05-23T19:48:50.395Z,15.43
2018-05-23T19:50:50.534Z,15.41
2018-05-23T19:52:51.691Z,15.34
2018-05-23T19:54:50.154Z,15.29
2018-05-23T19:56:50.453Z,15.27
2018-05-23T19:58:50.619Z,15.25
2018-05-23T20:00:50.802Z,15.25
2018-05-23T20:02:49.961Z,15.24
2018-05-23T20:04:50.363Z,15.26
2018-05-23T20:06:50.652Z,15.27
2018-05-23T20:08:50.784Z,15.24
2018-05-23T20:10:49.928Z,15.23
2018-05-23T20:12:50.081Z,15.21
2018-05-23T20:14:50.187Z,15.21
2018-05-23T20:16:50.522Z,15.20
2018-05-23T20:18:50.694Z,15.19
2018-05-23T20:20:51.717Z,15.19
2018-05-23T20:22:50.178Z,15.19
2018-05-23T20:24:50.309Z,15.18
2018-05-23T20:26:50.516Z,15.18
2018-05-23T20:28:50.692Z,15.17
2018-05-23T20:30:50.826Z,15.15
2018-05-23T20:32:49.946Z,15.14
2018-05-23T20:34:50.219Z,15.13
2018-05-23T20:36:50.438Z,15.14
2018-05-23T20:38:50.525Z,15.15
2018-05-23T20:40:50.653Z,15.17
2018-05-23T20:42:50.863Z,15.18
2018-05-23T20:44:49.971Z,15.18
2018-05-23T20:46:50.275Z,15.17
2018-05-23T20:48:50.405Z,15.18
2018-05-23T20:50:50.505Z,15.16
2018-05-23T20:52:50.735Z,15.12
2018-05-23T20:54:50.866Z,15.10
2018-05-23T20:56:50.154Z,15.07
2018-05-23T20:58:50.615Z,15.04
2018-05-23T21:00:50.749Z,15.00
2018-05-23T21:02:49.951Z,14.96
2018-05-23T21:04:50.359Z,14.93
2018-05-23T21:06:50.585Z,14.91
2018-05-23T21:08:50.749Z,14.93
2018-05-23T21:10:50.842Z,14.91
2018-05-23T21:12:49.937Z,14.87
2018-05-23T21:14:50.085Z,14.83
2018-05-23T21:16:50.365Z,14.78
2018-05-23T21:18:50.501Z,14.78
2018-05-23T21:20:50.736Z,14.75
2018-05-23T21:22:50.869Z,14.75
2018-05-23T21:24:49.993Z,14.81
2018-05-23T21:26:50.333Z,14.82
2018-05-23T21:28:50.450Z,14.83
2018-05-23T21:30:50.574Z,14.83
2018-05-23T21:32:50.679Z,14.81
2018-05-23T21:34:50.122Z,14.77
2018-05-23T21:36:50.435Z,14.75
2018-05-23T21:38:50.560Z,14.72
2018-05-23T21:40:50.757Z,14.71
2018-05-23T21:42:49.913Z,14.78
2018-05-23T21:44:50.094Z,14.80
2018-05-23T21:46:50.298Z,14.80
2018-05-23T21:48:50.395Z,14.80
2018-05-23T21:50:50.617Z,14.79
2018-05-23T21:52:50.819Z,14.79
2018-05-23T21:54:49.924Z,14.80
2018-05-23T21:56:50.217Z,14.82
2018-05-23T21:58:50.392Z,14.83
2018-05-23T22:00:50.527Z,14.83
2018-05-23T22:02:50.649Z,14.85
2018-05-23T22:04:49.943Z,14.86
2018-05-23T22:06:50.219Z,14.87
2018-05-23T22:08:50.373Z,14.90
2018-05-23T22:10:50.544Z,14.92
2018-05-23T22:12:50.678Z,14.94
2018-05-23T22:14:50.813Z,14.95
2018-05-23T22:16:50.042Z,14.97
2018-05-23T22:18:50.176Z,14.97
2018-05-23T22:20:50.411Z,14.95
2018-05-23T22:22:50.535Z,14.93
2018-05-23T22:24:50.751Z,14.93
2018-05-23T22:26:50.023Z,14.95
2018-05-23T22:28:50.162Z,14.96
2018-05-23T22:30:50.310Z,14.96
2018-05-23T22:32:50.446Z,14.97
2018-05-23T22:34:49.986Z,14.97
2018-05-23T22:36:50.210Z,14.97
2018-05-23T22:38:50.378Z,14.96
2018-05-23T22:40:50.544Z,14.97
2018-05-23T22:42:50.628Z,14.98
2018-05-23T22:44:50.808Z,14.97
2018-05-23T22:46:50.190Z,14.96
2018-05-23T22:48:50.336Z,14.96
2018-05-23T22:50:50.430Z,14.96
2018-05-23T22:52:50.563Z,14.98
2018-05-23T22:54:50.646Z,14.99
2018-05-23T22:56:49.990Z,14.98
2018-05-23T22:58:50.143Z,14.98
2018-05-23T23:00:50.261Z,14.97
2018-05-23T23:02:50.446Z,14.98
2018-05-23T23:04:50.816Z,14.98
2018-05-23T23:06:50.103Z,15.01
2018-05-23T23:08:50.282Z,15.02
2018-05-23T23:10:50.512Z,15.04
2018-05-23T23:12:50.743Z,15.03
2018-05-23T23:14:50.851Z,15.04
2018-05-23T23:16:50.161Z,15.03
2018-05-23T23:18:50.659Z,15.02
2018-05-23T23:20:49.920Z,15.00
2018-05-23T23:22:50.029Z,14.97
2018-05-23T23:24:50.189Z,14.96
2018-05-23T23:26:50.485Z,14.96
2018-05-23T23:28:50.625Z,14.94
2018-05-23T23:30:50.761Z,14.94
2018-05-23T23:32:49.995Z,14.93
2018-05-23T23:34:50.445Z,14.93
2018-05-23T23:36:50.744Z,14.92
2018-05-23T23:38:49.888Z,14.91
2018-05-23T23:40:50.192Z,14.91
2018-05-23T23:42:50.310Z,14.92
2018-05-23T23:44:50.572Z,14.90
2018-05-23T23:46:49.896Z,14.88
2018-05-23T23:48:49.994Z,14.89
2018-05-23T23:50:50.128Z,14.89
2018-05-23T23:52:50.291Z,14.90
2018-05-23T23:54:50.465Z,14.91
2018-05-23T23:56:50.757Z,14.92
2018-05-23T23:58:49.938Z,14.92
